sensor_id;sensor_type;location;lat;lon;timestamp;P1;durP1;ratioP1;P2;durP2;ratioP2
55350;SDS011;62194;49.480;10.986;2024-03-02T00:00:02;33.60;;;21.73;;
55350;SDS011;62194;49.480;10.986;2024-03-02T00:00:14;34.30;;;22.31;;
55350;SDS011;62194;49.480;10.986;2024-03-02T00:00:19;37.13;;;23.15;;
55350;SDS011;62194;49.480;10.986;2024-03-02T00:00:30;36.74;;;23.19;;
55350;SDS011;62194;49.480;10.986;2024-03-02T00:00:35;37.87;;;23.47;;
55350;SDS011;62194;49.480;10.986;2024-03-02T00:00:40;37.17;;;23.15;;
55350;SDS011;62194;49.480;10.986;2024-03-02T00:00:48;34.97;;;22.73;;
55350;SDS011;62194;49.480;10.986;2024-03-02T00:00:54;35.12;;;22.52;;
55350;SDS011;62194;49.480;10.986;2024-03-02T00:00:59;34.55;;;22.38;;
55350;SDS011;62194;49.480;10.986;2024-03-02T00:01:05;34.33;;;21.93;;
55350;SDS011;62194;49.480;10.986;2024-03-02T00:01:11;33.88;;;21.80;;
55350;SDS011;62194;49.480;10.986;2024-03-02T00:01:16;32.90;;;21.48;;
55350;SDS011;62194;49.480;10.986;2024-03-02T00:01:22;32.17;;;21.37;;
55350;SDS011;62194;49.480;10.986;2024-03-02T00:01:27;32.83;;;21.30;;
55350;SDS011;62194;49.480;10.986;2024-03-02T00:01:33;32.80;;;21.17;;
55350;SDS011;62194;49.480;10.986;2024-03-02T00:01:39;33.00;;;21.30;;
55350;SDS011;62194;49.480;10.986;2024-03-02T00:01:44;34.35;;;21.58;;
55350;SDS011;62194;49.480;10.986;2024-03-02T00:01:49;35.70;;;21.80;;
55350;SDS011;62194;49.480;10.986;2024-03-02T00:01:55;36.63;;;21.87;;
55350;SDS011;62194;49.480;10.986;2024-03-02T00:02:00;36.80;;;21.97;;
55350;SDS011;62194;49.480;10.986;2024-03-02T00:02:08;36.45;;;21.90;;
55350;SDS011;62194;49.480;10.986;2024-03-02T00:02:13;35.55;;;21.98;;
55350;SDS011;62194;49.480;10.986;2024-03-02T00:02:19;33.65;;;21.55;;
55350;SDS011;62194;49.480;10.986;2024-03-02T00:02:25;32.60;;;21.30;;
55350;SDS011;62194;49.480;10.986;2024-03-02T00:02:30;32.60;;;21.43;;
55350;SDS011;62194;49.480;10.986;2024-03-02T00:02:44;32.85;;;21.65;;
55350;SDS011;62194;49.480;10.986;2024-03-02T00:02:50;34.58;;;21.70;;
55350;SDS011;62194;49.480;10.986;2024-03-02T00:02:56;36.57;;;22.30;;
55350;SDS011;62194;49.480;10.986;2024-03-02T00:03:01;36.58;;;22.23;;
55350;SDS011;62194;49.480;10.986;2024-03-02T00:03:07;37.03;;;22.20;;
55350;SDS011;62194;49.480;10.986;2024-03-02T00:03:14;36.40;;;22.33;;
55350;SDS011;62194;49.480;10.986;2024-03-02T00:03:20;35.67;;;22.48;;
55350;SDS011;62194;49.480;10.986;2024-03-02T00:03:25;35.07;;;22.33;;
55350;SDS011;62194;49.480;10.986;2024-03-02T00:03:31;35.33;;;22.47;;
55350;SDS011;62194;49.480;10.986;2024-03-02T00:03:36;35.65;;;22.35;;
55350;SDS011;62194;49.480;10.986;2024-03-02T00:03:42;35.40;;;22.02;;
55350;SDS011;62194;49.480;10.986;2024-03-02T00:03:51;35.55;;;21.60;;
55350;SDS011;62194;49.480;10.986;2024-03-02T00:03:56;35.92;;;21.60;;
55350;SDS011;62194;49.480;10.986;2024-03-02T00:04:03;35.47;;;21.17;;
55350;SDS011;62194;49.480;10.986;2024-03-02T00:04:09;34.50;;;21.23;;
55350;SDS011;62194;49.480;10.986;2024-03-02T00:04:14;35.75;;;21.70;;
55350;SDS011;62194;49.480;10.986;2024-03-02T00:04:19;36.23;;;21.93;;
55350;SDS011;62194;49.480;10.986;2024-03-02T00:04:25;37.03;;;21.90;;
55350;SDS011;62194;49.480;10.986;2024-03-02T00:04:30;37.38;;;22.10;;
55350;SDS011;62194;49.480;10.986;2024-03-02T00:04:35;37.37;;;22.57;;
55350;SDS011;62194;49.480;10.986;2024-03-02T00:04:43;37.63;;;22.60;;
55350;SDS011;62194;49.480;10.986;2024-03-02T00:04:49;37.60;;;23.00;;
55350;SDS011;62194;49.480;10.986;2024-03-02T00:04:55;36.25;;;23.02;;
55350;SDS011;62194;49.480;10.986;2024-03-02T00:05:00;36.27;;;23.07;;
55350;SDS011;62194;49.480;10.986;2024-03-02T00:05:06;36.40;;;22.80;;
55350;SDS011;62194;49.480;10.986;2024-03-02T00:05:15;36.50;;;22.77;;
55350;SDS011;62194;49.480;10.986;2024-03-02T00:05:22;35.13;;;22.33;;
55350;SDS011;62194;49.480;10.986;2024-03-02T00:05:27;36.23;;;22.43;;
55350;SDS011;62194;49.480;10.986;2024-03-02T00:05:33;36.03;;;22.70;;
55350;SDS011;62194;49.480;10.986;2024-03-02T00:05:38;35.37;;;22.70;;
55350;SDS011;62194;49.480;10.986;2024-03-02T00:05:43;35.33;;;22.70;;
55350;SDS011;62194;49.480;10.986;2024-03-02T00:05:53;35.49;;;22.52;;
55350;SDS011;62194;49.480;10.986;2024-03-02T00:05:59;35.08;;;22.40;;
55350;SDS011;62194;49.480;10.986;2024-03-02T00:06:04;35.20;;;22.17;;
55350;SDS011;62194;49.480;10.986;2024-03-02T00:06:09;34.87;;;22.07;;
55350;SDS011;62194;49.480;10.986;2024-03-02T00:06:16;35.17;;;22.35;;
55350;SDS011;62194;49.480;10.986;2024-03-02T00:06:26;36.29;;;22.70;;
55350;SDS011;62194;49.480;10.986;2024-03-02T00:06:31;35.63;;;22.80;;
55350;SDS011;62194;49.480;10.986;2024-03-02T00:06:37;35.22;;;22.45;;
55350;SDS011;62194;49.480;10.986;2024-03-02T00:06:42;34.83;;;21.97;;
55350;SDS011;62194;49.480;10.986;2024-03-02T00:06:48;33.90;;;21.52;;
55350;SDS011;62194;49.480;10.986;2024-03-02T00:06:57;32.83;;;21.10;;
55350;SDS011;62194;49.480;10.986;2024-03-02T00:07:02;34.77;;;21.20;;
55350;SDS011;62194;49.480;10.986;2024-03-02T00:07:08;36.85;;;21.83;;
55350;SDS011;62194;49.480;10.986;2024-03-02T00:07:14;37.97;;;22.23;;
55350;SDS011;62194;49.480;10.986;2024-03-02T00:07:19;39.33;;;22.77;;
55350;SDS011;62194;49.480;10.986;2024-03-02T00:07:24;39.90;;;22.95;;
55350;SDS011;62194;49.480;10.986;2024-03-02T00:07:30;39.97;;;23.00;;
55350;SDS011;62194;49.480;10.986;2024-03-02T00:07:36;38.97;;;23.10;;
55350;SDS011;62194;49.480;10.986;2024-03-02T00:07:42;37.35;;;22.65;;
55350;SDS011;62194;49.480;10.986;2024-03-02T00:07:55;37.83;;;22.67;;
55350;SDS011;62194;49.480;10.986;2024-03-02T00:08:01;37.70;;;22.80;;
55350;SDS011;62194;49.480;10.986;2024-03-02T00:08:10;36.97;;;22.64;;
55350;SDS011;62194;49.480;10.986;2024-03-02T00:08:17;37.03;;;22.73;;
55350;SDS011;62194;49.480;10.986;2024-03-02T00:08:29;35.44;;;22.31;;
55350;SDS011;62194;49.480;10.986;2024-03-02T00:08:34;34.08;;;22.00;;
55350;SDS011;62194;49.480;10.986;2024-03-02T00:08:40;33.87;;;21.83;;
55350;SDS011;62194;49.480;10.986;2024-03-02T00:08:45;33.60;;;21.83;;
55350;SDS011;62194;49.480;10.986;2024-03-02T00:08:51;33.93;;;21.90;;
55350;SDS011;62194;49.480;10.986;2024-03-02T00:08:57;34.93;;;21.67;;
55350;SDS011;62194;49.480;10.986;2024-03-02T00:09:03;35.70;;;21.73;;
55350;SDS011;62194;49.480;10.986;2024-03-02T00:09:09;35.87;;;21.83;;
55350;SDS011;62194;49.480;10.986;2024-03-02T00:09:17;36.60;;;21.87;;
55350;SDS011;62194;49.480;10.986;2024-03-02T00:09:22;36.38;;;21.80;;
55350;SDS011;62194;49.480;10.986;2024-03-02T00:09:29;36.23;;;22.10;;
55350;SDS011;62194;49.480;10.986;2024-03-02T00:09:34;35.72;;;22.40;;
55350;SDS011;62194;49.480;10.986;2024-03-02T00:09:40;35.50;;;22.42;;
55350;SDS011;62194;49.480;10.986;2024-03-02T00:09:45;36.40;;;22.67;;
55350;SDS011;62194;49.480;10.986;2024-03-02T00:09:52;36.27;;;22.77;;
55350;SDS011;62194;49.480;10.986;2024-03-02T00:09:59;36.92;;;22.85;;
55350;SDS011;62194;49.480;10.986;2024-03-02T00:10:07;37.83;;;22.50;;
55350;SDS011;62194;49.480;10.986;2024-03-02T00:10:19;36.11;;;22.15;;
55350;SDS011;62194;49.480;10.986;2024-03-02T00:10:37;34.09;;;21.73;;
55350;SDS011;62194;49.480;10.986;2024-03-02T00:10:46;33.39;;;21.55;;
55350;SDS011;62194;49.480;10.986;2024-03-02T00:10:51;34.50;;;21.57;;
55350;SDS011;62194;49.480;10.986;2024-03-02T00:11:02;34.84;;;21.46;;
55350;SDS011;62194;49.480;10.986;2024-03-02T00:11:07;35.83;;;21.55;;
55350;SDS011;62194;49.480;10.986;2024-03-02T00:11:13;38.17;;;21.90;;
55350;SDS011;62194;49.480;10.986;2024-03-02T00:11:20;37.80;;;21.93;;
55350;SDS011;62194;49.480;10.986;2024-03-02T00:11:25;36.28;;;21.90;;
55350;SDS011;62194;49.480;10.986;2024-03-02T00:11:34;35.23;;;21.57;;
55350;SDS011;62194;49.480;10.986;2024-03-02T00:11:40;33.92;;;21.48;;
55350;SDS011;62194;49.480;10.986;2024-03-02T00:11:46;31.52;;;20.85;;
55350;SDS011;62194;49.480;10.986;2024-03-02T00:11:51;32.13;;;21.07;;
55350;SDS011;62194;49.480;10.986;2024-03-02T00:11:56;32.57;;;20.87;;
55350;SDS011;62194;49.480;10.986;2024-03-02T00:12:05;32.49;;;20.91;;
55350;SDS011;62194;49.480;10.986;2024-03-02T00:12:11;33.13;;;20.88;;
55350;SDS011;62194;49.480;10.986;2024-03-02T00:12:20;33.76;;;20.94;;
55350;SDS011;62194;49.480;10.986;2024-03-02T00:12:26;34.30;;;20.42;;
55350;SDS011;62194;49.480;10.986;2024-03-02T00:12:31;35.57;;;20.93;;
55350;SDS011;62194;49.480;10.986;2024-03-02T00:12:39;36.43;;;21.43;;
55350;SDS011;62194;49.480;10.986;2024-03-02T00:12:46;36.19;;;21.51;;
55350;SDS011;62194;49.480;10.986;2024-03-02T00:12:53;36.23;;;21.77;;
55350;SDS011;62194;49.480;10.986;2024-03-02T00:12:58;34.53;;;21.65;;
55350;SDS011;62194;49.480;10.986;2024-03-02T00:13:03;32.93;;;21.30;;
55350;SDS011;62194;49.480;10.986;2024-03-02T00:13:09;31.63;;;21.20;;
55350;SDS011;62194;49.480;10.986;2024-03-02T00:13:14;30.70;;;21.15;;
55350;SDS011;62194;49.480;10.986;2024-03-02T00:13:20;31.80;;;21.00;;
55350;SDS011;62194;49.480;10.986;2024-03-02T00:13:29;32.92;;;21.13;;
55350;SDS011;62194;49.480;10.986;2024-03-02T00:13:35;34.37;;;21.00;;
55350;SDS011;62194;49.480;10.986;2024-03-02T00:13:42;35.27;;;20.80;;
55350;SDS011;62194;49.480;10.986;2024-03-02T00:13:47;35.10;;;20.83;;
55350;SDS011;62194;49.480;10.986;2024-03-02T00:13:53;35.42;;;21.20;;
55350;SDS011;62194;49.480;10.986;2024-03-02T00:13:59;35.05;;;21.45;;
55350;SDS011;62194;49.480;10.986;2024-03-02T00:14:05;34.63;;;21.57;;
55350;SDS011;62194;49.480;10.986;2024-03-02T00:14:10;33.97;;;21.63;;
55350;SDS011;62194;49.480;10.986;2024-03-02T00:14:16;33.78;;;21.75;;
55350;SDS011;62194;49.480;10.986;2024-03-02T00:14:21;33.38;;;21.75;;
55350;SDS011;62194;49.480;10.986;2024-03-02T00:14:29;31.47;;;21.20;;
55350;SDS011;62194;49.480;10.986;2024-03-02T00:14:34;31.67;;;21.17;;
55350;SDS011;62194;49.480;10.986;2024-03-02T00:14:40;31.92;;;21.38;;
55350;SDS011;62194;49.480;10.986;2024-03-02T00:14:45;32.13;;;21.50;;
55350;SDS011;62194;49.480;10.986;2024-03-02T00:14:51;32.58;;;21.63;;
55350;SDS011;62194;49.480;10.986;2024-03-02T00:14:56;33.70;;;21.93;;
55350;SDS011;62194;49.480;10.986;2024-03-02T00:15:01;33.70;;;22.13;;
55350;SDS011;62194;49.480;10.986;2024-03-02T00:15:51;34.86;;;21.98;;
55350;SDS011;62194;49.480;10.986;2024-03-02T00:16:01;33.86;;;21.56;;
55350;SDS011;62194;49.480;10.986;2024-03-02T00:16:09;34.28;;;21.67;;
55350;SDS011;62194;49.480;10.986;2024-03-02T00:16:16;34.73;;;22.07;;
55350;SDS011;62194;49.480;10.986;2024-03-02T00:16:23;33.60;;;21.83;;
55350;SDS011;62194;49.480;10.986;2024-03-02T00:16:30;32.55;;;21.70;;
55350;SDS011;62194;49.480;10.986;2024-03-02T00:16:36;32.17;;;21.62;;
55350;SDS011;62194;49.480;10.986;2024-03-02T00:16:42;31.97;;;21.63;;
55350;SDS011;62194;49.480;10.986;2024-03-02T00:16:48;32.10;;;21.73;;
55350;SDS011;62194;49.480;10.986;2024-03-02T00:16:54;32.05;;;21.73;;
55350;SDS011;62194;49.480;10.986;2024-03-02T00:17:00;33.00;;;21.53;;
55350;SDS011;62194;49.480;10.986;2024-03-02T00:17:07;34.40;;;21.40;;
55350;SDS011;62194;49.480;10.986;2024-03-02T00:17:24;35.60;;;21.21;;
55350;SDS011;62194;49.480;10.986;2024-03-02T00:17:30;37.53;;;21.47;;
55350;SDS011;62194;49.480;10.986;2024-03-02T00:17:35;37.20;;;21.50;;
55350;SDS011;62194;49.480;10.986;2024-03-02T00:17:41;37.10;;;21.50;;
55350;SDS011;62194;49.480;10.986;2024-03-02T00:17:46;36.57;;;21.53;;
55350;SDS011;62194;49.480;10.986;2024-03-02T00:17:53;35.10;;;21.87;;
55350;SDS011;62194;49.480;10.986;2024-03-02T00:17:59;35.05;;;21.65;;
55350;SDS011;62194;49.480;10.986;2024-03-02T00:18:04;34.83;;;21.83;;
55350;SDS011;62194;49.480;10.986;2024-03-02T00:18:10;35.47;;;22.05;;
55350;SDS011;62194;49.480;10.986;2024-03-02T00:18:23;35.91;;;21.93;;
55350;SDS011;62194;49.480;10.986;2024-03-02T00:18:31;35.27;;;21.59;;
55350;SDS011;62194;49.480;10.986;2024-03-02T00:18:37;34.48;;;21.44;;
55350;SDS011;62194;49.480;10.986;2024-03-02T00:18:43;34.00;;;21.48;;
55350;SDS011;62194;49.480;10.986;2024-03-02T00:18:49;34.77;;;21.53;;
55350;SDS011;62194;49.480;10.986;2024-03-02T00:18:55;35.17;;;21.50;;
55350;SDS011;62194;49.480;10.986;2024-03-02T00:19:02;36.16;;;21.56;;
55350;SDS011;62194;49.480;10.986;2024-03-02T00:19:08;37.13;;;21.53;;
55350;SDS011;62194;49.480;10.986;2024-03-02T00:19:14;35.57;;;21.23;;
55350;SDS011;62194;49.480;10.986;2024-03-02T00:19:19;35.38;;;21.52;;
55350;SDS011;62194;49.480;10.986;2024-03-02T00:19:24;34.67;;;21.67;;
55350;SDS011;62194;49.480;10.986;2024-03-02T00:19:30;34.07;;;22.10;;
55350;SDS011;62194;49.480;10.986;2024-03-02T00:19:38;34.38;;;22.42;;
55350;SDS011;62194;49.480;10.986;2024-03-02T00:19:44;34.13;;;23.00;;
55350;SDS011;62194;49.480;10.986;2024-03-02T00:19:50;33.20;;;22.67;;
55350;SDS011;62194;49.480;10.986;2024-03-02T00:19:55;33.35;;;22.55;;
55350;SDS011;62194;49.480;10.986;2024-03-02T00:20:00;33.07;;;22.20;;
55350;SDS011;62194;49.480;10.986;2024-03-02T00:20:08;31.87;;;21.60;;
55350;SDS011;62194;49.480;10.986;2024-03-02T00:20:15;31.45;;;21.33;;
55350;SDS011;62194;49.480;10.986;2024-03-02T00:20:24;31.00;;;21.27;;
55350;SDS011;62194;49.480;10.986;2024-03-02T00:20:32;31.80;;;21.17;;
55350;SDS011;62194;49.480;10.986;2024-03-02T00:20:37;32.53;;;21.07;;
55350;SDS011;62194;49.480;10.986;2024-03-02T00:20:42;34.13;;;21.10;;
55350;SDS011;62194;49.480;10.986;2024-03-02T00:20:48;34.88;;;21.15;;
55350;SDS011;62194;49.480;10.986;2024-03-02T00:20:54;36.67;;;21.60;;
55350;SDS011;62194;49.480;10.986;2024-03-02T00:21:01;36.73;;;21.90;;
55350;SDS011;62194;49.480;10.986;2024-03-02T00:21:07;37.42;;;22.16;;
55350;SDS011;62194;49.480;10.986;2024-03-02T00:21:18;36.57;;;21.93;;
55350;SDS011;62194;49.480;10.986;2024-03-02T00:21:25;35.70;;;21.40;;
55350;SDS011;62194;49.480;10.986;2024-03-02T00:21:32;34.24;;;21.08;;
55350;SDS011;62194;49.480;10.986;2024-03-02T00:21:38;33.58;;;21.58;;
55350;SDS011;62194;49.480;10.986;2024-03-02T00:21:43;34.03;;;21.60;;
55350;SDS011;62194;49.480;10.986;2024-03-02T00:21:48;32.83;;;21.33;;
55350;SDS011;62194;49.480;10.986;2024-03-02T00:21:54;33.13;;;21.45;;
55350;SDS011;62194;49.480;10.986;2024-03-02T00:22:00;32.93;;;21.23;;
55350;SDS011;62194;49.480;10.986;2024-03-02T00:22:06;33.43;;;21.23;;
55350;SDS011;62194;49.480;10.986;2024-03-02T00:22:12;33.20;;;21.40;;
55350;SDS011;62194;49.480;10.986;2024-03-02T00:22:18;33.75;;;21.92;;
55350;SDS011;62194;49.480;10.986;2024-03-02T00:22:23;32.93;;;21.77;;
55350;SDS011;62194;49.480;10.986;2024-03-02T00:22:28;34.03;;;22.07;;
55350;SDS011;62194;49.480;10.986;2024-03-02T00:22:35;34.30;;;21.80;;
55350;SDS011;62194;49.480;10.986;2024-03-02T00:22:42;34.00;;;21.00;;
55350;SDS011;62194;49.480;10.986;2024-03-02T00:22:47;33.17;;;20.53;;
55350;SDS011;62194;49.480;10.986;2024-03-02T00:23:08;32.80;;;20.50;;
55350;SDS011;62194;49.480;10.986;2024-03-02T00:23:17;32.17;;;20.86;;
55350;SDS011;62194;49.480;10.986;2024-03-02T00:23:26;32.97;;;21.37;;
55350;SDS011;62194;49.480;10.986;2024-03-02T00:23:34;33.13;;;21.50;;
55350;SDS011;62194;49.480;10.986;2024-03-02T00:23:40;33.25;;;21.80;;
55350;SDS011;62194;49.480;10.986;2024-03-02T00:23:45;33.60;;;22.27;;
55350;SDS011;62194;49.480;10.986;2024-03-02T00:23:50;34.25;;;22.50;;
55350;SDS011;62194;49.480;10.986;2024-03-02T00:23:57;33.90;;;22.40;;
55350;SDS011;62194;49.480;10.986;2024-03-02T00:24:07;33.70;;;22.10;;
55350;SDS011;62194;49.480;10.986;2024-03-02T00:24:31;33.61;;;21.98;;
55350;SDS011;62194;49.480;10.986;2024-03-02T00:24:39;33.48;;;21.67;;
55350;SDS011;62194;49.480;10.986;2024-03-02T00:24:44;32.42;;;21.13;;
55350;SDS011;62194;49.480;10.986;2024-03-02T00:24:50;32.23;;;20.73;;
55350;SDS011;62194;49.480;10.986;2024-03-02T00:24:55;32.07;;;20.33;;
55350;SDS011;62194;49.480;10.986;2024-03-02T00:25:00;31.92;;;20.20;;
55350;SDS011;62194;49.480;10.986;2024-03-02T00:25:06;33.83;;;20.97;;
55350;SDS011;62194;49.480;10.986;2024-03-02T00:25:13;34.20;;;21.57;;
55350;SDS011;62194;49.480;10.986;2024-03-02T00:25:19;34.10;;;22.00;;
55350;SDS011;62194;49.480;10.986;2024-03-02T00:25:24;34.43;;;22.10;;
55350;SDS011;62194;49.480;10.986;2024-03-02T00:25:36;34.22;;;22.45;;
55350;SDS011;62194;49.480;10.986;2024-03-02T00:25:46;33.17;;;21.84;;
55350;SDS011;62194;49.480;10.986;2024-03-02T00:25:53;33.84;;;21.73;;
55350;SDS011;62194;49.480;10.986;2024-03-02T00:26:00;33.70;;;21.50;;
55350;SDS011;62194;49.480;10.986;2024-03-02T00:26:06;33.70;;;21.50;;
55350;SDS011;62194;49.480;10.986;2024-03-02T00:26:13;33.94;;;21.50;;
55350;SDS011;62194;49.480;10.986;2024-03-02T00:26:20;35.26;;;21.88;;
55350;SDS011;62194;49.480;10.986;2024-03-02T00:26:26;35.20;;;22.03;;
55350;SDS011;62194;49.480;10.986;2024-03-02T00:26:31;35.60;;;22.20;;
55350;SDS011;62194;49.480;10.986;2024-03-02T00:26:36;35.50;;;22.23;;
55350;SDS011;62194;49.480;10.986;2024-03-02T00:26:43;35.70;;;22.20;;
55350;SDS011;62194;49.480;10.986;2024-03-02T00:26:49;34.13;;;22.05;;
55350;SDS011;62194;49.480;10.986;2024-03-02T00:26:55;33.97;;;21.90;;
55350;SDS011;62194;49.480;10.986;2024-03-02T00:27:01;33.17;;;21.50;;
55350;SDS011;62194;49.480;10.986;2024-03-02T00:27:09;33.17;;;21.42;;
55350;SDS011;62194;49.480;10.986;2024-03-02T00:27:19;33.57;;;21.57;;
55350;SDS011;62194;49.480;10.986;2024-03-02T00:27:25;33.30;;;21.48;;
55350;SDS011;62194;49.480;10.986;2024-03-02T00:27:30;34.10;;;22.00;;
55350;SDS011;62194;49.480;10.986;2024-03-02T00:27:35;34.93;;;22.40;;
55350;SDS011;62194;49.480;10.986;2024-03-02T00:27:40;34.53;;;22.33;;
55350;SDS011;62194;49.480;10.986;2024-03-02T00:27:47;35.33;;;22.33;;
55350;SDS011;62194;49.480;10.986;2024-03-02T00:27:54;36.69;;;22.13;;
55350;SDS011;62194;49.480;10.986;2024-03-02T00:27:59;36.67;;;22.40;;
55350;SDS011;62194;49.480;10.986;2024-03-02T00:28:04;36.20;;;22.23;;
55350;SDS011;62194;49.480;10.986;2024-03-02T00:28:25;35.97;;;22.43;;
55350;SDS011;62194;49.480;10.986;2024-03-02T00:28:35;33.99;;;22.16;;
55350;SDS011;62194;49.480;10.986;2024-03-02T00:28:41;32.94;;;21.74;;
55350;SDS011;62194;49.480;10.986;2024-03-02T00:28:48;32.22;;;21.44;;
55350;SDS011;62194;49.480;10.986;2024-03-02T00:28:55;34.73;;;21.73;;
55350;SDS011;62194;49.480;10.986;2024-03-02T00:29:01;35.92;;;22.02;;
55350;SDS011;62194;49.480;10.986;2024-03-02T00:29:07;36.25;;;22.02;;
55350;SDS011;62194;49.480;10.986;2024-03-02T00:29:18;37.56;;;22.34;;
55350;SDS011;62194;49.480;10.986;2024-03-02T00:29:25;36.20;;;22.27;;
55350;SDS011;62194;49.480;10.986;2024-03-02T00:29:30;36.17;;;22.23;;
55350;SDS011;62194;49.480;10.986;2024-03-02T00:29:36;35.42;;;21.83;;
55350;SDS011;62194;49.480;10.986;2024-03-02T00:29:41;35.33;;;21.75;;
55350;SDS011;62194;49.480;10.986;2024-03-02T00:29:47;35.53;;;21.60;;
55350;SDS011;62194;49.480;10.986;2024-03-02T00:29:53;36.85;;;21.77;;
55350;SDS011;62194;49.480;10.986;2024-03-02T00:29:59;36.17;;;21.60;;
55350;SDS011;62194;49.480;10.986;2024-03-02T00:31:07;34.58;;;21.38;;
55350;SDS011;62194;49.480;10.986;2024-03-02T00:31:14;32.56;;;21.33;;
55350;SDS011;62194;49.480;10.986;2024-03-02T00:31:20;34.22;;;22.00;;
55350;SDS011;62194;49.480;10.986;2024-03-02T00:31:25;34.43;;;22.03;;
55350;SDS011;62194;49.480;10.986;2024-03-02T00:31:30;33.70;;;21.80;;
55350;SDS011;62194;49.480;10.986;2024-03-02T00:31:36;32.70;;;21.10;;
55350;SDS011;62194;49.480;10.986;2024-03-02T00:31:44;31.27;;;20.53;;
55350;SDS011;62194;49.480;10.986;2024-03-02T00:31:50;31.33;;;20.27;;
55350;SDS011;62194;49.480;10.986;2024-03-02T00:31:55;31.30;;;20.38;;
55350;SDS011;62194;49.480;10.986;2024-03-02T00:32:01;31.87;;;20.57;;
55350;SDS011;62194;49.480;10.986;2024-03-02T00:32:12;32.77;;;21.27;;
55350;SDS011;62194;49.480;10.986;2024-03-02T00:32:20;33.55;;;21.99;;
55350;SDS011;62194;49.480;10.986;2024-03-02T00:32:25;33.90;;;22.17;;
55350;SDS011;62194;49.480;10.986;2024-03-02T00:32:33;34.46;;;22.30;;
55350;SDS011;62194;49.480;10.986;2024-03-02T00:32:39;35.30;;;22.17;;
55350;SDS011;62194;49.480;10.986;2024-03-02T00:32:44;34.38;;;21.90;;
55350;SDS011;62194;49.480;10.986;2024-03-02T00:32:49;33.33;;;21.60;;
55350;SDS011;62194;49.480;10.986;2024-03-02T00:32:58;32.73;;;21.12;;
55350;SDS011;62194;49.480;10.986;2024-03-02T00:33:06;32.00;;;20.55;;
55350;SDS011;62194;49.480;10.986;2024-03-02T00:33:12;31.78;;;20.12;;
55350;SDS011;62194;49.480;10.986;2024-03-02T00:33:17;33.72;;;20.33;;
55350;SDS011;62194;49.480;10.986;2024-03-02T00:33:25;36.10;;;20.90;;
55350;SDS011;62194;49.480;10.986;2024-03-02T00:33:42;36.37;;;21.60;;
55350;SDS011;62194;49.480;10.986;2024-03-02T00:33:48;35.72;;;21.71;;
55350;SDS011;62194;49.480;10.986;2024-03-02T00:33:54;33.67;;;21.77;;
55350;SDS011;62194;49.480;10.986;2024-03-02T00:33:59;32.23;;;21.40;;
55350;SDS011;62194;49.480;10.986;2024-03-02T00:34:09;32.53;;;21.30;;
55350;SDS011;62194;49.480;10.986;2024-03-02T00:34:18;32.49;;;21.16;;
55350;SDS011;62194;49.480;10.986;2024-03-02T00:34:24;32.83;;;21.23;;
55350;SDS011;62194;49.480;10.986;2024-03-02T00:34:30;34.03;;;21.43;;
55350;SDS011;62194;49.480;10.986;2024-03-02T00:34:35;34.90;;;21.38;;
55350;SDS011;62194;49.480;10.986;2024-03-02T00:34:40;35.57;;;21.57;;
55350;SDS011;62194;49.480;10.986;2024-03-02T00:34:46;34.67;;;21.40;;
55350;SDS011;62194;49.480;10.986;2024-03-02T00:34:51;34.30;;;21.48;;
55350;SDS011;62194;49.480;10.986;2024-03-02T00:34:56;34.93;;;21.53;;
55350;SDS011;62194;49.480;10.986;2024-03-02T00:35:03;34.40;;;21.60;;
55350;SDS011;62194;49.480;10.986;2024-03-02T00:35:10;32.77;;;21.80;;
55350;SDS011;62194;49.480;10.986;2024-03-02T00:35:16;33.42;;;21.84;;
55350;SDS011;62194;49.480;10.986;2024-03-02T00:35:22;34.03;;;21.70;;
55350;SDS011;62194;49.480;10.986;2024-03-02T00:35:28;34.14;;;21.76;;
55350;SDS011;62194;49.480;10.986;2024-03-02T00:35:33;34.03;;;21.67;;
55350;SDS011;62194;49.480;10.986;2024-03-02T00:35:39;35.35;;;22.02;;
55350;SDS011;62194;49.480;10.986;2024-03-02T00:35:44;35.30;;;22.17;;
55350;SDS011;62194;49.480;10.986;2024-03-02T00:35:49;34.83;;;22.10;;
55350;SDS011;62194;49.480;10.986;2024-03-02T00:35:55;34.63;;;21.77;;
55350;SDS011;62194;49.480;10.986;2024-03-02T00:36:04;34.72;;;21.65;;
55350;SDS011;62194;49.480;10.986;2024-03-02T00:36:10;34.97;;;21.60;;
55350;SDS011;62194;49.480;10.986;2024-03-02T00:36:32;34.05;;;21.35;;
55350;SDS011;62194;49.480;10.986;2024-03-02T00:36:37;32.43;;;21.30;;
55350;SDS011;62194;49.480;10.986;2024-03-02T00:36:43;32.70;;;21.35;;
55350;SDS011;62194;49.480;10.986;2024-03-02T00:36:49;33.17;;;21.50;;
55350;SDS011;62194;49.480;10.986;2024-03-02T00:36:57;33.25;;;21.67;;
55350;SDS011;62194;49.480;10.986;2024-03-02T00:37:04;33.27;;;21.64;;
55350;SDS011;62194;49.480;10.986;2024-03-02T00:37:10;32.67;;;21.30;;
55350;SDS011;62194;49.480;10.986;2024-03-02T00:37:16;32.25;;;21.23;;
55350;SDS011;62194;49.480;10.986;2024-03-02T00:37:22;32.22;;;21.15;;
55350;SDS011;62194;49.480;10.986;2024-03-02T00:37:27;31.80;;;21.07;;
55350;SDS011;62194;49.480;10.986;2024-03-02T00:37:33;33.40;;;21.07;;
55350;SDS011;62194;49.480;10.986;2024-03-02T00:37:39;33.42;;;20.98;;
55350;SDS011;62194;49.480;10.986;2024-03-02T00:37:44;33.20;;;20.93;;
55350;SDS011;62194;49.480;10.986;2024-03-02T00:37:49;33.70;;;21.10;;
55350;SDS011;62194;49.480;10.986;2024-03-02T00:37:54;34.10;;;21.38;;
55350;SDS011;62194;49.480;10.986;2024-03-02T00:38:06;34.20;;;21.50;;
55350;SDS011;62194;49.480;10.986;2024-03-02T00:38:12;33.79;;;21.58;;
55350;SDS011;62194;49.480;10.986;2024-03-02T00:38:20;33.30;;;21.32;;
55350;SDS011;62194;49.480;10.986;2024-03-02T00:38:26;33.08;;;20.92;;
55350;SDS011;62194;49.480;10.986;2024-03-02T00:38:32;33.22;;;21.13;;
55350;SDS011;62194;49.480;10.986;2024-03-02T00:38:48;32.40;;;21.13;;
55350;SDS011;62194;49.480;10.986;2024-03-02T00:39:00;32.51;;;21.38;;
55350;SDS011;62194;49.480;10.986;2024-03-02T00:39:05;31.95;;;21.27;;
55350;SDS011;62194;49.480;10.986;2024-03-02T00:39:12;31.10;;;21.10;;
55350;SDS011;62194;49.480;10.986;2024-03-02T00:39:22;33.40;;;21.07;;
55350;SDS011;62194;49.480;10.986;2024-03-02T00:39:28;34.17;;;21.27;;
55350;SDS011;62194;49.480;10.986;2024-03-02T00:39:34;35.17;;;21.57;;
55350;SDS011;62194;49.480;10.986;2024-03-02T00:39:39;35.97;;;21.75;;
55350;SDS011;62194;49.480;10.986;2024-03-02T00:39:48;36.67;;;21.97;;
55350;SDS011;62194;49.480;10.986;2024-03-02T00:39:54;34.92;;;21.96;;
55350;SDS011;62194;49.480;10.986;2024-03-02T00:39:59;33.37;;;21.63;;
55350;SDS011;62194;49.480;10.986;2024-03-02T00:40:05;32.83;;;21.37;;
55350;SDS011;62194;49.480;10.986;2024-03-02T00:40:11;31.42;;;20.95;;
55350;SDS011;62194;49.480;10.986;2024-03-02T00:40:18;30.80;;;20.88;;
55350;SDS011;62194;49.480;10.986;2024-03-02T00:40:26;32.25;;;21.02;;
55350;SDS011;62194;49.480;10.986;2024-03-02T00:40:34;33.10;;;20.98;;
55350;SDS011;62194;49.480;10.986;2024-03-02T00:40:39;34.30;;;21.27;;